EXS71AS EGCC-LGSM
Flight info
| Callsign | EXS71AS |
|---|---|
| Flight time | N/A |
| Altitude | 39000 |
| Route | SANBA N859 HON L15 FINMA DCT CHT DCT ITVIP DCT KONAN DCT KOK DCT KOMOB DCT KRH DCT UTABA DCT MOMUK DCT GEDSO DCT VEKEN DCT KANIN DCT NEMEK DCT KOTOR DCT TUPUS DCT OSLUD DCT MEDUX UM867 KOGAT DCT ERANA UL737 TSL UN130 MES L609 PIPEN Y94 ORMOS |
| Aircraft | B738/M-SDE2E3FGHIRWXY/LB1 |
Departure
| Time | 2026-05-08 06:05 |
|---|---|
| Airport | Manchester Airport (EGCC) |
Arrival
| Time | N/A |
|---|---|
| Airport | Samos Airport (LGSM) |
| Time | Latitude | Longitude | Altitude | Speed | Heading |
|---|---|---|---|---|---|
| 2026-05-08 05:45 | 53.36553 | -2.28366 | 254 ft | 0 kts | 315° |
| 2026-05-08 05:54 | 53.36546 | -2.28354 | 254 ft | 4 kts | 315° |
| 2026-05-08 05:54 | 53.36529 | -2.28326 | 254 ft | 2 kts | 315° |
| 2026-05-08 05:55 | 53.36518 | -2.28299 | 254 ft | 4 kts | 250° |
| 2026-05-08 05:55 | 53.36532 | -2.28268 | 254 ft | 3 kts | 224° |
| 2026-05-08 05:55 | 53.36549 | -2.28241 | 254 ft | 1 kts | 224° |
| 2026-05-08 05:55 | 53.36549 | -2.28240 | 254 ft | 1 kts | 224° |
| 2026-05-08 05:58 | 53.36540 | -2.28255 | 254 ft | 6 kts | 224° |
| 2026-05-08 05:59 | 53.36489 | -2.28338 | 254 ft | 12 kts | 220° |
| 2026-05-08 05:59 | 53.36416 | -2.28388 | 254 ft | 11 kts | 183° |
| 2026-05-08 05:59 | 53.36359 | -2.28308 | 254 ft | 11 kts | 134° |
| 2026-05-08 05:59 | 53.36295 | -2.28202 | 254 ft | 14 kts | 135° |
| 2026-05-08 06:00 | 53.36225 | -2.28085 | 254 ft | 14 kts | 135° |
| 2026-05-08 06:00 | 53.36158 | -2.27975 | 254 ft | 13 kts | 140° |
| 2026-05-08 06:00 | 53.36087 | -2.27884 | 254 ft | 13 kts | 142° |
| 2026-05-08 06:00 | 53.36018 | -2.27793 | 254 ft | 12 kts | 141° |
| 2026-05-08 06:01 | 53.35943 | -2.27727 | 254 ft | 12 kts | 172° |
| 2026-05-08 06:01 | 53.35860 | -2.27730 | 254 ft | 12 kts | 184° |
| 2026-05-08 06:01 | 53.35780 | -2.27677 | 250 ft | 13 kts | 143° |
| 2026-05-08 06:01 | 53.35693 | -2.27615 | 246 ft | 15 kts | 154° |
| 2026-05-08 06:02 | 53.35614 | -2.27512 | 244 ft | 14 kts | 140° |
| 2026-05-08 06:02 | 53.35539 | -2.27410 | 246 ft | 14 kts | 140° |
| 2026-05-08 06:02 | 53.35467 | -2.27313 | 247 ft | 13 kts | 141° |
| 2026-05-08 06:02 | 53.35397 | -2.27221 | 245 ft | 13 kts | 144° |
| 2026-05-08 06:03 | 53.35312 | -2.27194 | 241 ft | 14 kts | 197° |
| 2026-05-08 06:03 | 53.35238 | -2.27312 | 238 ft | 15 kts | 231° |
| 2026-05-08 06:03 | 53.35174 | -2.27445 | 237 ft | 15 kts | 231° |
| 2026-05-08 06:03 | 53.35107 | -2.27586 | 233 ft | 15 kts | 234° |
| 2026-05-08 06:04 | 53.35030 | -2.27699 | 229 ft | 16 kts | 188° |
| 2026-05-08 06:04 | 53.34911 | -2.27671 | 222 ft | 19 kts | 169° |
| 2026-05-08 06:04 | 53.34840 | -2.27678 | 223 ft | 7 kts | 218° |
| 2026-05-08 06:04 | 53.34774 | -2.27808 | 222 ft | 35 kts | 230° |
| 2026-05-08 06:05 | 53.34477 | -2.28423 | 225 ft | 100 kts | 231° |
| 2026-05-08 06:05 | 53.33917 | -2.29579 | 226 ft | 153 kts | 231° |
| 2026-05-08 06:05 | 53.33203 | -2.31052 | 579 ft | 167 kts | 230° |
| 2026-05-08 06:05 | 53.32467 | -2.32524 | 1336 ft | 168 kts | 227° |
| 2026-05-08 06:06 | 53.31800 | -2.33847 | 1917 ft | 176 kts | 236° |
| 2026-05-08 06:06 | 53.31441 | -2.35817 | 2718 ft | 185 kts | 268° |
| 2026-05-08 06:06 | 53.31703 | -2.37699 | 3602 ft | 192 kts | 295° |
| 2026-05-08 06:06 | 53.32668 | -2.39338 | 4394 ft | 209 kts | 330° |
| 2026-05-08 06:07 | 53.34069 | -2.40191 | 5046 ft | 222 kts | 341° |
| 2026-05-08 06:07 | 53.35583 | -2.40986 | 5656 ft | 236 kts | 340° |
| 2026-05-08 06:07 | 53.37154 | -2.41838 | 5965 ft | 268 kts | 340° |
| 2026-05-08 06:07 | 53.38998 | -2.42855 | 6733 ft | 281 kts | 340° |
| 2026-05-08 06:08 | 53.40861 | -2.43889 | 7823 ft | 281 kts | 340° |
| 2026-05-08 06:08 | 53.42717 | -2.44918 | 8896 ft | 282 kts | 340° |
| 2026-05-08 06:08 | 53.44533 | -2.46047 | 9866 ft | 286 kts | 342° |
| 2026-05-08 06:08 | 53.46566 | -2.46266 | 10756 ft | 295 kts | 9° |
| 2026-05-08 06:09 | 53.48475 | -2.44990 | 11615 ft | 301 kts | 34° |
| 2026-05-08 06:09 | 53.49767 | -2.42838 | 12321 ft | 307 kts | 58° |
| 2026-05-08 06:09 | 53.50517 | -2.39477 | 13145 ft | 309 kts | 80° |
| 2026-05-08 06:09 | 53.50642 | -2.35784 | 13561 ft | 328 kts | 94° |
| 2026-05-08 06:10 | 53.50451 | -2.31705 | 13792 ft | 352 kts | 96° |
| 2026-05-08 06:10 | 53.50232 | -2.27528 | 14264 ft | 364 kts | 96° |
| 2026-05-08 06:10 | 53.50038 | -2.23275 | 14966 ft | 368 kts | 96° |
| 2026-05-08 06:10 | 53.49856 | -2.18982 | 15719 ft | 370 kts | 96° |
| 2026-05-08 06:11 | 53.49670 | -2.14656 | 16494 ft | 371 kts | 96° |
| 2026-05-08 06:11 | 53.49525 | -2.11328 | 17076 ft | 371 kts | 96° |
| 2026-05-08 06:11 | 53.49338 | -2.07013 | 17874 ft | 370 kts | 96° |
| 2026-05-08 06:11 | 53.49154 | -2.02693 | 18637 ft | 368 kts | 96° |
| 2026-05-08 06:12 | 53.48977 | -1.98424 | 19360 ft | 366 kts | 96° |
| 2026-05-08 06:12 | 53.48805 | -1.94172 | 20090 ft | 363 kts | 96° |
| 2026-05-08 06:12 | 53.48624 | -1.89955 | 20837 ft | 359 kts | 99° |
| 2026-05-08 06:12 | 53.48219 | -1.85862 | 21600 ft | 352 kts | 104° |
| 2026-05-08 06:13 | 53.47736 | -1.81917 | 22370 ft | 346 kts | 105° |
| 2026-05-08 06:13 | 53.47252 | -1.78001 | 23168 ft | 340 kts | 104° |
| 2026-05-08 06:13 | 53.46817 | -1.74057 | 23476 ft | 350 kts | 103° |
| 2026-05-08 06:13 | 53.46385 | -1.69951 | 23582 ft | 364 kts | 102° |
| 2026-05-08 06:14 | 53.45938 | -1.65687 | 23684 ft | 377 kts | 103° |
| 2026-05-08 06:14 | 53.45471 | -1.61295 | 23774 ft | 389 kts | 103° |
| 2026-05-08 06:14 | 53.44983 | -1.56762 | 23848 ft | 400 kts | 103° |
| 2026-05-08 06:14 | 53.44475 | -1.52094 | 23930 ft | 411 kts | 102° |
| 2026-05-08 06:15 | 53.43953 | -1.47333 | 24148 ft | 417 kts | 102° |
| 2026-05-08 06:15 | 53.43430 | -1.42586 | 24479 ft | 419 kts | 102° |
| 2026-05-08 06:15 | 53.42899 | -1.37767 | 24841 ft | 420 kts | 103° |
| 2026-05-08 06:15 | 53.42363 | -1.32954 | 25173 ft | 422 kts | 103° |
| 2026-05-08 06:16 | 53.41815 | -1.28095 | 25473 ft | 424 kts | 104° |
| 2026-05-08 06:16 | 53.41079 | -1.23306 | 25776 ft | 425 kts | 109° |
| 2026-05-08 06:16 | 53.40202 | -1.18586 | 26064 ft | 426 kts | 110° |
| 2026-05-08 06:16 | 53.39296 | -1.13847 | 26346 ft | 428 kts | 110° |
| 2026-05-08 06:17 | 53.37488 | -1.04280 | 26865 ft | 433 kts | 109° |
| 2026-05-08 06:17 | 53.36592 | -0.99461 | 27090 ft | 435 kts | 109° |
| 2026-05-08 06:17 | 53.35696 | -0.94609 | 27355 ft | 436 kts | 109° |
| 2026-05-08 06:18 | 53.34809 | -0.89806 | 27620 ft | 438 kts | 109° |
| 2026-05-08 06:18 | 53.33895 | -0.84860 | 27859 ft | 440 kts | 109° |
| 2026-05-08 06:18 | 53.32999 | -0.80030 | 28085 ft | 441 kts | 109° |
| 2026-05-08 06:18 | 53.32085 | -0.75109 | 28307 ft | 443 kts | 109° |
| 2026-05-08 06:19 | 53.31163 | -0.70174 | 28525 ft | 445 kts | 109° |
| 2026-05-08 06:19 | 53.30234 | -0.65215 | 28736 ft | 446 kts | 109° |
| 2026-05-08 06:19 | 53.29299 | -0.60237 | 28938 ft | 448 kts | 110° |
| 2026-05-08 06:19 | 53.28370 | -0.55303 | 29146 ft | 449 kts | 110° |
| 2026-05-08 06:20 | 53.27430 | -0.50315 | 29337 ft | 451 kts | 110° |
| 2026-05-08 06:20 | 53.26490 | -0.45346 | 29536 ft | 452 kts | 110° |
| 2026-05-08 06:20 | 53.25538 | -0.40325 | 29721 ft | 453 kts | 110° |
| 2026-05-08 06:20 | 53.24579 | -0.35287 | 29909 ft | 455 kts | 110° |
| 2026-05-08 06:21 | 53.23615 | -0.30231 | 30092 ft | 455 kts | 110° |
| 2026-05-08 06:21 | 53.22660 | -0.25241 | 30270 ft | 456 kts | 110° |
| 2026-05-08 06:21 | 53.21689 | -0.20182 | 30410 ft | 458 kts | 110° |
| 2026-05-08 06:21 | 53.20712 | -0.15104 | 30545 ft | 459 kts | 110° |
| 2026-05-08 06:22 | 53.19736 | -0.10033 | 30696 ft | 460 kts | 110° |
| 2026-05-08 06:22 | 53.18755 | -0.04957 | 30821 ft | 461 kts | 110° |
| 2026-05-08 06:22 | 53.17767 | 0.00142 | 30968 ft | 462 kts | 110° |
| 2026-05-08 06:22 | 53.16778 | 0.05226 | 31187 ft | 461 kts | 110° |
| 2026-05-08 06:23 | 53.15799 | 0.10242 | 31408 ft | 460 kts | 110° |
| 2026-05-08 06:23 | 53.15132 | 0.13653 | 31545 ft | 459 kts | 110° |
| 2026-05-08 06:23 | 53.14137 | 0.18735 | 31723 ft | 459 kts | 110° |
| 2026-05-08 06:23 | 53.13157 | 0.23728 | 31908 ft | 459 kts | 110° |
| 2026-05-08 06:24 | 53.12163 | 0.28779 | 32111 ft | 458 kts | 110° |
| 2026-05-08 06:24 | 53.11167 | 0.33830 | 32310 ft | 458 kts | 110° |
| 2026-05-08 06:24 | 53.10169 | 0.38879 | 32498 ft | 458 kts | 110° |
| 2026-05-08 06:24 | 53.09170 | 0.43917 | 32688 ft | 457 kts | 110° |
| 2026-05-08 06:25 | 53.08171 | 0.48941 | 32885 ft | 457 kts | 110° |
| 2026-05-08 06:25 | 53.07173 | 0.53953 | 33081 ft | 456 kts | 110° |
| 2026-05-08 06:25 | 53.06175 | 0.58949 | 33348 ft | 454 kts | 110° |
| 2026-05-08 06:25 | 53.05191 | 0.63859 | 33569 ft | 453 kts | 110° |
| 2026-05-08 06:26 | 53.04182 | 0.68885 | 33726 ft | 453 kts | 110° |
| 2026-05-08 06:26 | 53.03190 | 0.73813 | 33867 ft | 454 kts | 110° |
| 2026-05-08 06:26 | 53.02187 | 0.78785 | 34068 ft | 453 kts | 110° |
| 2026-05-08 06:26 | 53.01180 | 0.83763 | 34254 ft | 452 kts | 111° |
| 2026-05-08 06:27 | 53.00171 | 0.88741 | 34364 ft | 453 kts | 110° |
| 2026-05-08 06:27 | 52.99173 | 0.93656 | 34413 ft | 455 kts | 110° |
| 2026-05-08 06:27 | 52.97114 | 1.03626 | 34671 ft | 455 kts | 112° |
| 2026-05-08 06:28 | 52.96022 | 1.08544 | 34830 ft | 454 kts | 112° |
| 2026-05-08 06:28 | 52.94901 | 1.13455 | 34926 ft | 454 kts | 113° |
| 2026-05-08 06:28 | 52.92651 | 1.23219 | 35145 ft | 455 kts | 113° |
| 2026-05-08 06:29 | 52.91523 | 1.28129 | 35265 ft | 455 kts | 113° |
| 2026-05-08 06:29 | 52.90398 | 1.33038 | 35362 ft | 456 kts | 112° |
| 2026-05-08 06:29 | 52.88142 | 1.42891 | 35564 ft | 457 kts | 112° |
| 2026-05-08 06:30 | 52.87015 | 1.47806 | 35683 ft | 457 kts | 112° |
| 2026-05-08 06:30 | 52.85882 | 1.52735 | 35758 ft | 457 kts | 113° |
| 2026-05-08 06:30 | 52.84765 | 1.57584 | 35867 ft | 457 kts | 113° |
| 2026-05-08 06:30 | 52.83625 | 1.62517 | 35986 ft | 457 kts | 113° |
| 2026-05-08 06:31 | 52.81355 | 1.72310 | 36143 ft | 458 kts | 113° |
| 2026-05-08 06:31 | 52.79076 | 1.82098 | 36338 ft | 457 kts | 113° |
| 2026-05-08 06:32 | 52.76779 | 1.91913 | 36494 ft | 458 kts | 113° |
| 2026-05-08 06:32 | 52.74474 | 2.01722 | 36653 ft | 458 kts | 113° |
| 2026-05-08 06:33 | 52.73318 | 2.06622 | 36757 ft | 458 kts | 113° |
| 2026-05-08 06:33 | 52.72162 | 2.11515 | 36845 ft | 458 kts | 113° |
| 2026-05-08 06:33 | 52.69840 | 2.21305 | 36970 ft | 458 kts | 113° |
| 2026-05-08 06:34 | 52.68679 | 2.26184 | 37094 ft | 457 kts | 113° |
| 2026-05-08 06:34 | 52.67513 | 2.31070 | 37120 ft | 459 kts | 113° |
| 2026-05-08 06:34 | 52.65177 | 2.40830 | 37131 ft | 461 kts | 113° |
| 2026-05-08 06:35 | 52.62806 | 2.50691 | 37112 ft | 461 kts | 114° |
| 2026-05-08 06:35 | 52.60445 | 2.60473 | 37121 ft | 461 kts | 114° |
| 2026-05-08 06:36 | 52.58068 | 2.70273 | 37123 ft | 461 kts | 114° |
| 2026-05-08 06:36 | 52.55696 | 2.80016 | 37120 ft | 460 kts | 114° |
| 2026-05-08 06:37 | 52.53183 | 2.89701 | 37124 ft | 459 kts | 117° |
| 2026-05-08 06:37 | 52.50433 | 2.99090 | 37111 ft | 458 kts | 118° |
| 2026-05-08 06:38 | 52.47633 | 3.08496 | 37108 ft | 457 kts | 118° |
| 2026-05-08 06:38 | 52.44865 | 3.17871 | 37118 ft | 456 kts | 118° |
| 2026-05-08 06:39 | 52.42123 | 3.27197 | 37116 ft | 455 kts | 118° |
| 2026-05-08 06:39 | 52.39366 | 3.36554 | 37118 ft | 455 kts | 118° |
| 2026-05-08 06:40 | 52.36616 | 3.45852 | 37115 ft | 455 kts | 118° |
| 2026-05-08 06:40 | 52.33843 | 3.55190 | 37112 ft | 455 kts | 118° |
| 2026-05-08 06:41 | 52.31080 | 3.64456 | 37119 ft | 455 kts | 118° |
| 2026-05-08 06:41 | 52.28290 | 3.73776 | 37118 ft | 456 kts | 118° |
| 2026-05-08 06:42 | 52.25492 | 3.83084 | 37127 ft | 457 kts | 118° |
| 2026-05-08 06:42 | 52.22684 | 3.92391 | 37127 ft | 457 kts | 118° |
| 2026-05-08 06:43 | 52.19856 | 4.01730 | 37126 ft | 458 kts | 118° |
| 2026-05-08 06:43 | 52.17045 | 4.10976 | 37124 ft | 458 kts | 118° |
| 2026-05-08 06:44 | 52.14201 | 4.20293 | 37128 ft | 458 kts | 118° |
| 2026-05-08 06:44 | 52.11351 | 4.29597 | 37125 ft | 459 kts | 118° |
| 2026-05-08 06:45 | 52.08510 | 4.38834 | 37121 ft | 459 kts | 118° |
| 2026-05-08 06:45 | 52.05640 | 4.48129 | 37125 ft | 459 kts | 119° |
| 2026-05-08 06:46 | 52.02785 | 4.57343 | 37109 ft | 458 kts | 119° |
| 2026-05-08 06:46 | 51.99900 | 4.66616 | 37110 ft | 458 kts | 119° |
| 2026-05-08 06:47 | 51.97033 | 4.75797 | 37116 ft | 458 kts | 119° |
| 2026-05-08 06:47 | 51.94147 | 4.85003 | 37104 ft | 457 kts | 119° |
| 2026-05-08 06:48 | 51.91274 | 4.94135 | 37120 ft | 457 kts | 119° |
| 2026-05-08 06:48 | 51.88398 | 5.03242 | 37116 ft | 456 kts | 119° |
| 2026-05-08 06:49 | 51.85490 | 5.12418 | 37115 ft | 456 kts | 119° |
| 2026-05-08 06:49 | 51.82603 | 5.21491 | 37118 ft | 456 kts | 119° |
| 2026-05-08 06:50 | 51.79688 | 5.30619 | 37115 ft | 456 kts | 120° |
| 2026-05-08 06:50 | 51.76767 | 5.39731 | 37110 ft | 456 kts | 120° |
| 2026-05-08 06:51 | 51.73858 | 5.48772 | 37110 ft | 456 kts | 120° |
| 2026-05-08 06:51 | 51.70924 | 5.57859 | 37111 ft | 456 kts | 120° |
| 2026-05-08 06:52 | 51.67982 | 5.66935 | 37129 ft | 457 kts | 120° |
| 2026-05-08 06:52 | 51.65028 | 5.76017 | 37125 ft | 457 kts | 120° |
| 2026-05-08 06:53 | 51.62090 | 5.85016 | 37125 ft | 457 kts | 120° |
| 2026-05-08 06:53 | 51.59122 | 5.94075 | 37131 ft | 457 kts | 120° |
| 2026-05-08 06:54 | 51.56142 | 6.03138 | 37132 ft | 457 kts | 120° |
| 2026-05-08 06:54 | 51.53175 | 6.12136 | 37130 ft | 457 kts | 120° |
| 2026-05-08 06:55 | 51.50189 | 6.21136 | 37130 ft | 457 kts | 121° |
| 2026-05-08 06:55 | 51.46766 | 6.29725 | 37122 ft | 455 kts | 127° |
| 2026-05-08 06:56 | 51.43158 | 6.38025 | 37122 ft | 455 kts | 127° |
| 2026-05-08 06:56 | 51.39544 | 6.46375 | 37106 ft | 456 kts | 127° |
| 2026-05-08 06:57 | 51.35950 | 6.54769 | 37111 ft | 456 kts | 127° |
| 2026-05-08 06:57 | 51.32367 | 6.63156 | 37128 ft | 456 kts | 127° |
| 2026-05-08 06:58 | 51.28795 | 6.71497 | 37120 ft | 456 kts | 127° |
| 2026-05-08 06:58 | 51.25204 | 6.79850 | 37131 ft | 456 kts | 127° |
| 2026-05-08 06:59 | 51.21601 | 6.88202 | 37135 ft | 456 kts | 127° |
| 2026-05-08 06:59 | 51.18018 | 6.96482 | 37124 ft | 456 kts | 127° |
| 2026-05-08 07:00 | 51.14395 | 7.04827 | 37123 ft | 456 kts | 127° |
| 2026-05-08 07:00 | 51.10770 | 7.13148 | 37098 ft | 456 kts | 127° |
| 2026-05-08 07:01 | 51.07163 | 7.21403 | 37120 ft | 456 kts | 127° |
| 2026-05-08 07:01 | 51.03530 | 7.29693 | 37126 ft | 456 kts | 127° |
| 2026-05-08 07:02 | 50.99912 | 7.37921 | 37124 ft | 456 kts | 127° |
| 2026-05-08 07:02 | 50.96269 | 7.46180 | 37122 ft | 456 kts | 127° |
| 2026-05-08 07:03 | 50.92621 | 7.54426 | 37122 ft | 456 kts | 127° |
| 2026-05-08 07:03 | 50.88988 | 7.62614 | 37115 ft | 456 kts | 127° |
| 2026-05-08 07:04 | 50.85347 | 7.70795 | 37118 ft | 456 kts | 127° |
| 2026-05-08 07:04 | 50.81238 | 7.78427 | 37121 ft | 451 kts | 139° |
| 2026-05-08 07:05 | 50.76641 | 7.85123 | 37105 ft | 451 kts | 140° |
| 2026-05-08 07:05 | 50.72012 | 7.91890 | 37106 ft | 452 kts | 139° |
| 2026-05-08 07:06 | 50.67444 | 7.98651 | 37100 ft | 453 kts | 139° |
| 2026-05-08 07:06 | 50.62845 | 8.05460 | 37105 ft | 453 kts | 139° |
| 2026-05-08 07:07 | 50.58415 | 8.12543 | 37126 ft | 456 kts | 132° |
| 2026-05-08 07:07 | 50.54500 | 8.20363 | 37129 ft | 457 kts | 130° |
| 2026-05-08 07:08 | 50.50590 | 8.28238 | 37128 ft | 457 kts | 131° |
| 2026-05-08 07:08 | 50.47300 | 8.34724 | 37137 ft | 457 kts | 131° |
| 2026-05-08 07:09 | 50.43309 | 8.42510 | 37125 ft | 457 kts | 131° |
| 2026-05-08 07:09 | 50.39322 | 8.50271 | 37130 ft | 457 kts | 131° |
| 2026-05-08 07:10 | 50.35206 | 8.57799 | 37133 ft | 456 kts | 135° |
| 2026-05-08 07:10 | 50.30858 | 8.65018 | 37129 ft | 455 kts | 136° |
| 2026-05-08 07:11 | 50.26482 | 8.72214 | 37134 ft | 455 kts | 136° |
| 2026-05-08 07:11 | 50.22129 | 8.79421 | 37135 ft | 455 kts | 136° |
| 2026-05-08 07:12 | 50.17802 | 8.86604 | 37127 ft | 456 kts | 136° |
| 2026-05-08 07:12 | 50.13452 | 8.93817 | 37127 ft | 455 kts | 136° |
| 2026-05-08 07:13 | 50.09135 | 9.00953 | 37128 ft | 455 kts | 136° |
| 2026-05-08 07:13 | 50.04775 | 9.08138 | 37121 ft | 455 kts | 136° |
| 2026-05-08 07:14 | 50.00415 | 9.15302 | 37109 ft | 455 kts | 136° |
| 2026-05-08 07:14 | 49.96071 | 9.22420 | 37120 ft | 456 kts | 136° |
| 2026-05-08 07:15 | 49.91694 | 9.29571 | 37115 ft | 456 kts | 136° |
| 2026-05-08 07:15 | 49.87342 | 9.36663 | 37116 ft | 456 kts | 136° |
| 2026-05-08 07:16 | 49.82958 | 9.43786 | 37116 ft | 456 kts | 136° |
| 2026-05-08 07:16 | 49.78589 | 9.50865 | 37103 ft | 456 kts | 137° |
| 2026-05-08 07:17 | 49.74202 | 9.57953 | 37105 ft | 456 kts | 137° |
| 2026-05-08 07:17 | 49.69803 | 9.65041 | 37108 ft | 455 kts | 137° |
| 2026-05-08 07:18 | 49.65432 | 9.72063 | 37110 ft | 455 kts | 137° |
| 2026-05-08 07:18 | 49.61032 | 9.79114 | 37108 ft | 455 kts | 137° |
| 2026-05-08 07:19 | 49.56646 | 9.86121 | 37104 ft | 456 kts | 137° |
| 2026-05-08 07:19 | 49.52241 | 9.93141 | 37095 ft | 455 kts | 137° |
| 2026-05-08 07:20 | 49.47825 | 10.00159 | 37103 ft | 455 kts | 137° |
| 2026-05-08 07:20 | 49.43432 | 10.07121 | 37104 ft | 455 kts | 137° |
| 2026-05-08 07:21 | 49.39007 | 10.14114 | 37104 ft | 455 kts | 137° |
| 2026-05-08 07:21 | 49.34575 | 10.21100 | 37112 ft | 456 kts | 137° |
| 2026-05-08 07:22 | 49.30169 | 10.28029 | 37114 ft | 456 kts | 137° |
| 2026-05-08 07:22 | 49.25731 | 10.34986 | 37138 ft | 455 kts | 137° |
| 2026-05-08 07:23 | 49.20865 | 10.41036 | 37137 ft | 448 kts | 153° |
| 2026-05-08 07:23 | 49.15480 | 10.45841 | 37138 ft | 448 kts | 153° |
| 2026-05-08 07:24 | 49.10115 | 10.50616 | 37149 ft | 448 kts | 153° |
| 2026-05-08 07:24 | 49.04730 | 10.55476 | 37146 ft | 448 kts | 153° |
| 2026-05-08 07:25 | 48.99392 | 10.60312 | 37141 ft | 448 kts | 153° |
| 2026-05-08 07:26 | 48.91342 | 10.67582 | 37132 ft | 448 kts | 153° |
| 2026-05-08 07:26 | 48.85974 | 10.72412 | 37140 ft | 448 kts | 153° |
| 2026-05-08 07:27 | 48.80752 | 10.77533 | 37123 ft | 453 kts | 143° |
| 2026-05-08 07:27 | 48.76364 | 10.84471 | 37125 ft | 456 kts | 135° |
| 2026-05-08 07:28 | 48.72183 | 10.91653 | 37126 ft | 456 kts | 135° |
| 2026-05-08 07:28 | 48.67955 | 10.98820 | 37114 ft | 455 kts | 135° |
| 2026-05-08 07:29 | 48.63713 | 11.05917 | 37132 ft | 454 kts | 135° |
| 2026-05-08 07:29 | 48.59450 | 11.13005 | 37120 ft | 454 kts | 135° |
| 2026-05-08 07:30 | 48.55217 | 11.20025 | 37123 ft | 454 kts | 135° |
| 2026-05-08 07:30 | 48.50951 | 11.27083 | 37085 ft | 453 kts | 135° |
| 2026-05-08 07:31 | 48.46729 | 11.34052 | 37091 ft | 453 kts | 136° |
| 2026-05-08 07:31 | 48.42472 | 11.41059 | 37103 ft | 453 kts | 136° |
| 2026-05-08 07:32 | 48.38201 | 11.48072 | 37101 ft | 453 kts | 136° |
| 2026-05-08 07:32 | 48.33958 | 11.55020 | 37100 ft | 453 kts | 136° |
| 2026-05-08 07:33 | 48.29686 | 11.62000 | 37100 ft | 453 kts | 136° |
| 2026-05-08 07:33 | 48.25365 | 11.68922 | 37095 ft | 452 kts | 139° |
| 2026-05-08 07:34 | 48.20779 | 11.75305 | 37107 ft | 451 kts | 141° |
| 2026-05-08 07:34 | 48.16109 | 11.81602 | 37102 ft | 452 kts | 141° |
| 2026-05-08 07:35 | 48.11464 | 11.87905 | 37098 ft | 452 kts | 141° |
| 2026-05-08 07:35 | 48.06811 | 11.94253 | 37100 ft | 453 kts | 141° |
| 2026-05-08 07:36 | 48.02143 | 12.00620 | 37075 ft | 453 kts | 141° |
| 2026-05-08 07:36 | 47.97479 | 12.06967 | 37090 ft | 453 kts | 141° |
| 2026-05-08 07:37 | 47.92836 | 12.13265 | 37099 ft | 453 kts | 141° |
| 2026-05-08 07:37 | 47.88155 | 12.19598 | 37100 ft | 454 kts | 141° |
| 2026-05-08 07:38 | 47.83487 | 12.25898 | 37097 ft | 454 kts | 141° |
| 2026-05-08 07:38 | 47.78792 | 12.32218 | 37095 ft | 454 kts | 141° |
| 2026-05-08 07:39 | 47.74106 | 12.38511 | 37091 ft | 454 kts | 142° |
| 2026-05-08 07:39 | 47.69439 | 12.44764 | 37092 ft | 454 kts | 142° |
| 2026-05-08 07:40 | 47.64729 | 12.51060 | 37094 ft | 454 kts | 142° |
| 2026-05-08 07:40 | 47.60043 | 12.57357 | 37095 ft | 454 kts | 141° |
| 2026-05-08 07:41 | 47.55432 | 12.63703 | 37070 ft | 455 kts | 141° |
| 2026-05-08 07:41 | 47.50792 | 12.70101 | 37063 ft | 454 kts | 141° |
| 2026-05-08 07:42 | 47.46179 | 12.76427 | 37084 ft | 454 kts | 142° |
| 2026-05-08 07:42 | 47.41532 | 12.82772 | 37077 ft | 454 kts | 142° |
| 2026-05-08 07:43 | 47.36895 | 12.89085 | 37075 ft | 454 kts | 142° |
| 2026-05-08 07:43 | 47.32268 | 12.95366 | 37064 ft | 454 kts | 142° |
| 2026-05-08 07:44 | 47.27616 | 13.01668 | 37080 ft | 453 kts | 142° |
| 2026-05-08 07:44 | 47.22960 | 13.07959 | 37059 ft | 452 kts | 142° |
| 2026-05-08 07:45 | 47.18349 | 13.14175 | 37089 ft | 450 kts | 142° |
| 2026-05-08 07:45 | 47.13710 | 13.20411 | 37078 ft | 451 kts | 142° |
| 2026-05-08 07:46 | 47.09092 | 13.26605 | 37093 ft | 451 kts | 142° |
| 2026-05-08 07:46 | 47.04442 | 13.32825 | 37094 ft | 452 kts | 143° |
| 2026-05-08 07:47 | 46.99780 | 13.39047 | 37081 ft | 452 kts | 143° |
| 2026-05-08 07:47 | 46.95117 | 13.45254 | 37081 ft | 453 kts | 143° |
| 2026-05-08 07:48 | 46.90476 | 13.51419 | 37092 ft | 453 kts | 143° |
| 2026-05-08 07:48 | 46.85787 | 13.57630 | 37089 ft | 454 kts | 143° |
| 2026-05-08 07:49 | 46.81095 | 13.63831 | 37099 ft | 455 kts | 143° |
| 2026-05-08 07:49 | 46.76419 | 13.69995 | 37084 ft | 455 kts | 143° |
| 2026-05-08 07:50 | 46.71709 | 13.76189 | 37088 ft | 456 kts | 143° |
| 2026-05-08 07:50 | 46.66994 | 13.82376 | 37112 ft | 454 kts | 143° |
| 2026-05-08 07:51 | 46.62327 | 13.88484 | 37103 ft | 454 kts | 143° |
| 2026-05-08 07:51 | 46.57618 | 13.94631 | 37109 ft | 453 kts | 143° |
| 2026-05-08 07:52 | 46.53704 | 13.99730 | 37099 ft | 453 kts | 143° |
| 2026-05-08 07:52 | 46.49007 | 14.05834 | 37115 ft | 452 kts | 143° |
| 2026-05-08 07:53 | 46.44340 | 14.11887 | 37128 ft | 452 kts | 143° |
| 2026-05-08 07:53 | 46.39640 | 14.17965 | 37114 ft | 452 kts | 143° |
| 2026-05-08 07:54 | 46.34942 | 14.24029 | 37096 ft | 452 kts | 143° |
| 2026-05-08 07:54 | 46.30261 | 14.30057 | 37098 ft | 451 kts | 143° |
| 2026-05-08 07:55 | 46.25563 | 14.36099 | 37097 ft | 451 kts | 143° |
| 2026-05-08 07:55 | 46.21023 | 14.42339 | 37111 ft | 452 kts | 141° |
| 2026-05-08 07:56 | 46.16521 | 14.48719 | 37085 ft | 452 kts | 141° |
| 2026-05-08 07:56 | 46.12042 | 14.55011 | 37102 ft | 452 kts | 141° |
| 2026-05-08 07:57 | 46.07508 | 14.61319 | 37105 ft | 452 kts | 141° |
| 2026-05-08 07:57 | 46.02968 | 14.67604 | 37109 ft | 452 kts | 141° |
| 2026-05-08 07:58 | 45.98453 | 14.73840 | 37100 ft | 452 kts | 142° |
| 2026-05-08 07:58 | 45.93899 | 14.80114 | 37085 ft | 453 kts | 142° |
| 2026-05-08 07:59 | 45.89366 | 14.86348 | 37100 ft | 453 kts | 142° |
| 2026-05-08 07:59 | 45.84798 | 14.92614 | 37106 ft | 453 kts | 142° |
| 2026-05-08 08:00 | 45.80230 | 14.98865 | 37098 ft | 453 kts | 142° |
| 2026-05-08 08:00 | 45.75686 | 15.05069 | 37104 ft | 453 kts | 142° |
| 2026-05-08 08:01 | 45.71109 | 15.11303 | 37094 ft | 453 kts | 142° |
| 2026-05-08 08:01 | 45.66556 | 15.17490 | 37103 ft | 452 kts | 142° |
| 2026-05-08 08:02 | 45.61989 | 15.23683 | 37104 ft | 452 kts | 142° |
| 2026-05-08 08:02 | 45.57441 | 15.29835 | 37101 ft | 451 kts | 142° |
| 2026-05-08 08:03 | 45.52955 | 15.36110 | 37112 ft | 452 kts | 140° |
| 2026-05-08 08:03 | 45.48507 | 15.42475 | 37106 ft | 452 kts | 140° |
| 2026-05-08 08:04 | 45.44091 | 15.48773 | 37112 ft | 451 kts | 140° |
| 2026-05-08 08:04 | 45.39635 | 15.55087 | 37104 ft | 451 kts | 140° |
| 2026-05-08 08:05 | 45.35173 | 15.61380 | 37108 ft | 451 kts | 140° |
| 2026-05-08 08:05 | 45.30726 | 15.67637 | 37099 ft | 450 kts | 140° |
| 2026-05-08 08:06 | 45.26295 | 15.73856 | 37090 ft | 450 kts | 140° |
| 2026-05-08 08:06 | 45.21828 | 15.80110 | 37099 ft | 450 kts | 140° |
| 2026-05-08 08:07 | 45.17358 | 15.86356 | 37108 ft | 450 kts | 140° |
| 2026-05-08 08:07 | 45.12912 | 15.92553 | 37105 ft | 450 kts | 140° |
| 2026-05-08 08:08 | 45.08440 | 15.98773 | 37097 ft | 450 kts | 140° |
| 2026-05-08 08:08 | 45.03981 | 16.04959 | 37103 ft | 450 kts | 140° |
| 2026-05-08 08:09 | 44.99498 | 16.11164 | 37097 ft | 450 kts | 140° |
| 2026-05-08 08:09 | 44.95010 | 16.17363 | 37089 ft | 450 kts | 140° |
| 2026-05-08 08:10 | 44.90546 | 16.23515 | 37087 ft | 450 kts | 140° |
| 2026-05-08 08:10 | 44.86054 | 16.29689 | 37100 ft | 450 kts | 141° |
| 2026-05-08 08:11 | 44.81584 | 16.35820 | 37093 ft | 450 kts | 141° |
| 2026-05-08 08:11 | 44.77077 | 16.41987 | 37098 ft | 451 kts | 141° |
| 2026-05-08 08:12 | 44.72571 | 16.48139 | 37096 ft | 451 kts | 141° |
| 2026-05-08 08:12 | 44.68086 | 16.54249 | 37087 ft | 451 kts | 140° |
| 2026-05-08 08:13 | 44.63569 | 16.60387 | 37092 ft | 451 kts | 141° |
| 2026-05-08 08:13 | 44.59068 | 16.66491 | 37084 ft | 451 kts | 141° |
| 2026-05-08 08:14 | 44.54549 | 16.72606 | 37084 ft | 451 kts | 141° |
| 2026-05-08 08:14 | 44.50026 | 16.78712 | 37069 ft | 450 kts | 140° |
| 2026-05-08 08:15 | 44.45509 | 16.84795 | 37088 ft | 449 kts | 141° |
| 2026-05-08 08:15 | 44.41030 | 16.90814 | 37081 ft | 448 kts | 141° |
| 2026-05-08 08:16 | 44.36518 | 16.96863 | 37081 ft | 448 kts | 141° |
| 2026-05-08 08:16 | 44.32011 | 17.02891 | 37077 ft | 447 kts | 141° |
| 2026-05-08 08:17 | 44.27544 | 17.08855 | 37064 ft | 446 kts | 141° |
| 2026-05-08 08:17 | 44.23053 | 17.14836 | 37077 ft | 445 kts | 141° |
| 2026-05-08 08:18 | 44.18594 | 17.20761 | 37076 ft | 444 kts | 141° |
| 2026-05-08 08:18 | 44.14134 | 17.26675 | 37083 ft | 444 kts | 141° |
| 2026-05-08 08:19 | 44.09652 | 17.32604 | 37073 ft | 443 kts | 141° |
| 2026-05-08 08:19 | 44.05173 | 17.38517 | 37083 ft | 443 kts | 141° |